createdAt,value
2018-11-28T00:00:44.908Z,19.30
2018-11-28T00:03:33.679Z,18.98
2018-11-28T00:06:22.463Z,19.00
2018-11-28T00:09:11.233Z,17.37
2018-11-28T00:12:00.377Z,18.53
2018-11-28T00:14:49.134Z,18.47
2018-11-28T00:17:38.041Z,16.90
2018-11-28T00:20:26.861Z,19.20
2018-11-28T00:23:15.925Z,18.70
2018-11-28T00:26:04.713Z,20.27
2018-11-28T00:28:53.494Z,16.17
2018-11-28T00:31:42.277Z,19.97
2018-11-28T00:34:31.031Z,20.80
2018-11-28T00:37:19.822Z,17.40
2018-11-28T00:40:10.004Z,17.97
2018-11-28T00:42:58.815Z,17.57
2018-11-28T00:45:47.904Z,19.70
2018-11-28T00:48:36.683Z,19.40
2018-11-28T00:51:25.463Z,19.20
2018-11-28T00:54:14.238Z,22.87
2018-11-28T00:57:03.000Z,18.40
2018-11-28T00:59:51.798Z,19.47
2018-11-28T01:02:40.594Z,17.87
2018-11-28T01:05:29.363Z,18.93
2018-11-28T01:08:18.764Z,18.97
2018-11-28T01:11:07.640Z,21.30
2018-11-28T01:13:56.409Z,19.67
2018-11-28T01:16:45.467Z,18.03
2018-11-28T01:19:34.254Z,18.33
2018-11-28T01:22:23.052Z,17.07
2018-11-28T01:25:31.223Z,19.50
2018-11-28T01:28:20.001Z,17.93
2018-11-28T01:31:08.819Z,18.57
2018-11-28T01:33:57.549Z,18.10
2018-11-28T01:36:46.621Z,17.97
2018-11-28T01:39:35.385Z,19.03
2018-11-28T01:42:24.183Z,20.17
2018-11-28T01:45:14.031Z,20.17
2018-11-28T01:48:02.860Z,21.10
2018-11-28T01:50:51.619Z,17.33
2018-11-28T01:53:40.403Z,20.30
2018-11-28T01:56:29.171Z,18.80
2018-11-28T01:59:18.231Z,18.00
2018-11-28T02:02:09.688Z,20.70
2018-11-28T02:04:58.478Z,18.00
2018-11-28T02:07:47.242Z,20.90
2018-11-28T02:10:36.031Z,20.20
2018-11-28T02:13:25.059Z,18.90
2018-11-28T02:16:13.833Z,21.67
2018-11-28T02:19:02.577Z,20.77
2018-11-28T02:21:51.358Z,19.67
2018-11-28T02:24:40.131Z,18.47
2018-11-28T02:27:28.916Z,19.97
2018-11-28T02:30:21.574Z,19.40
2018-11-28T02:33:10.347Z,19.60
2018-11-28T02:35:59.123Z,19.17
2018-11-28T02:38:48.204Z,18.77
2018-11-28T02:41:36.984Z,18.37
2018-11-28T02:44:26.028Z,20.03
2018-11-28T02:47:14.808Z,19.67
2018-11-28T02:50:03.568Z,19.40
2018-11-28T02:52:52.357Z,20.10
2018-11-28T02:55:41.194Z,19.47
2018-11-28T02:58:29.978Z,16.87
2018-11-28T03:01:18.750Z,19.10
2018-11-28T03:04:07.533Z,18.27
2018-11-28T03:06:56.294Z,19.50
2018-11-28T03:09:45.350Z,19.90
2018-11-28T03:12:34.116Z,18.90
2018-11-28T03:15:33.800Z,19.03
2018-11-28T03:18:23.282Z,19.73
2018-11-28T03:21:12.058Z,20.33
2018-11-28T03:24:00.830Z,18.23
2018-11-28T03:26:49.602Z,20.33
2018-11-28T03:29:38.397Z,17.00
2018-11-28T03:32:27.175Z,20.43
2018-11-28T03:35:16.439Z,19.20
2018-11-28T03:38:05.311Z,17.20
2018-11-28T03:40:54.378Z,20.87
2018-11-28T03:43:43.170Z,17.87
2018-11-28T03:46:32.220Z,22.00
2018-11-28T03:49:21.167Z,20.30
2018-11-28T03:52:10.145Z,20.77
2018-11-28T03:54:59.127Z,20.23
2018-11-28T03:57:49.042Z,20.40
2018-11-28T04:00:38.207Z,18.27
2018-11-28T04:03:26.977Z,19.83
2018-11-28T04:06:15.745Z,23.33
2018-11-28T04:08:45.172Z,28.75
2018-11-28T04:11:33.955Z,19.63
2018-11-28T04:14:22.718Z,19.10
2018-11-28T04:17:11.504Z,19.00
2018-11-28T04:20:00.260Z,17.30
2018-11-28T04:22:49.054Z,18.33
2018-11-28T04:25:37.821Z,19.50
2018-11-28T04:28:26.613Z,18.37
2018-11-28T04:31:15.385Z,18.30
2018-11-28T04:34:04.174Z,19.07
2018-11-28T04:36:53.323Z,21.47
2018-11-28T04:39:42.120Z,19.10
2018-11-28T04:42:30.880Z,20.73
2018-11-28T04:45:39.042Z,21.20
2018-11-28T04:48:27.825Z,17.87
2018-11-28T04:51:16.668Z,20.67
2018-11-28T04:54:05.377Z,19.40
2018-11-28T04:56:54.159Z,19.70
2018-11-28T04:59:42.932Z,17.60
2018-11-28T05:02:31.722Z,19.90
2018-11-28T05:05:20.490Z,19.10
2018-11-28T05:08:09.364Z,21.20
2018-11-28T05:10:58.053Z,19.03
2018-11-28T05:13:47.098Z,18.32
2018-11-28T05:16:35.892Z,20.90
2018-11-28T05:19:24.941Z,20.27
2018-11-28T05:22:13.729Z,22.70
2018-11-28T05:25:02.804Z,17.90
2018-11-28T05:27:52.456Z,17.60
2018-11-28T05:30:41.396Z,17.93
2018-11-28T05:33:30.182Z,20.83
2018-11-28T05:36:18.934Z,17.07
2018-11-28T05:39:08.068Z,19.50
2018-11-28T05:41:56.828Z,19.20
2018-11-28T05:44:45.908Z,19.30
2018-11-28T05:47:34.960Z,20.70
2018-11-28T05:50:23.770Z,19.73
2018-11-28T05:53:12.528Z,17.90
2018-11-28T05:56:01.306Z,18.77
2018-11-28T05:58:50.073Z,20.03
2018-11-28T06:01:38.860Z,17.87
2018-11-28T06:04:27.889Z,21.03
2018-11-28T06:07:16.824Z,16.63
2018-11-28T06:10:06.471Z,15.10
2018-11-28T06:12:55.760Z,18.57
2018-11-28T06:15:45.113Z,18.60
2018-11-28T06:18:33.876Z,19.82
2018-11-28T06:21:22.648Z,19.60
2018-11-28T06:24:11.409Z,18.10
2018-11-28T06:27:00.187Z,16.47
2018-11-28T06:29:48.941Z,19.97
2018-11-28T06:32:37.878Z,19.10
2018-11-28T06:35:26.640Z,17.20
2018-11-28T06:38:15.426Z,17.27
2018-11-28T06:41:04.206Z,14.90
2018-11-28T06:43:53.021Z,16.90
2018-11-28T06:46:42.111Z,17.13
2018-11-28T06:49:30.879Z,18.30
2018-11-28T06:52:19.931Z,16.93
2018-11-28T06:55:10.559Z,17.80
2018-11-28T06:57:59.785Z,17.53
2018-11-28T07:00:49.166Z,17.20
2018-11-28T07:03:38.124Z,18.30
2018-11-28T07:06:27.753Z,18.57
2018-11-28T07:09:16.674Z,15.37
2018-11-28T07:12:05.689Z,18.10
2018-11-28T07:14:54.994Z,20.10
2018-11-28T07:17:44.264Z,18.23
2018-11-28T07:20:33.540Z,17.40
2018-11-28T07:23:22.512Z,19.07
2018-11-28T07:26:11.450Z,19.10
2018-11-28T07:29:00.397Z,22.25
2018-11-28T07:31:49.369Z,18.37
2018-11-28T07:34:38.356Z,19.40
2018-11-28T07:37:27.276Z,19.97
2018-11-28T07:40:26.299Z,17.80
2018-11-28T07:43:15.404Z,19.13
2018-11-28T07:46:04.676Z,18.57
2018-11-28T07:48:53.719Z,19.60
2018-11-28T07:51:42.644Z,20.67
2018-11-28T07:54:31.629Z,20.37
2018-11-28T07:57:20.557Z,17.77
2018-11-28T08:00:15.921Z,17.00
2018-11-28T08:03:05.767Z,18.23
2018-11-28T08:05:55.089Z,14.30
2018-11-28T08:08:44.021Z,15.40
2018-11-28T08:11:32.892Z,18.23
2018-11-28T08:14:21.799Z,21.20
2018-11-28T08:17:10.574Z,18.37
2018-11-28T08:19:59.344Z,16.80
2018-11-28T08:22:48.127Z,14.40
2018-11-28T08:25:36.895Z,17.33
2018-11-28T08:28:25.699Z,15.23
2018-11-28T08:31:14.741Z,15.53
2018-11-28T08:34:03.507Z,16.15
2018-11-28T08:36:52.559Z,15.70
2018-11-28T08:39:41.353Z,14.60
2018-11-28T08:42:30.143Z,17.67
2018-11-28T08:45:19.842Z,17.60
2018-11-28T08:48:08.488Z,19.43
2018-11-28T08:50:57.282Z,16.70
2018-11-28T08:53:46.057Z,17.10
2018-11-28T08:56:34.839Z,16.93
2018-11-28T08:59:23.604Z,16.80
2018-11-28T09:02:12.703Z,17.47
2018-11-28T09:05:01.744Z,16.60
2018-11-28T09:07:50.794Z,19.87
2018-11-28T09:10:39.555Z,17.70
2018-11-28T09:13:28.346Z,16.60
2018-11-28T09:16:17.115Z,17.97
2018-11-28T09:19:05.900Z,18.85
2018-11-28T09:21:54.662Z,18.27
2018-11-28T09:24:43.435Z,15.43
2018-11-28T09:27:32.455Z,19.93
2018-11-28T09:30:21.288Z,15.57
2018-11-28T09:33:10.050Z,16.57
2018-11-28T09:35:59.158Z,16.40
2018-11-28T09:38:47.941Z,17.70
2018-11-28T09:41:37.004Z,17.53
2018-11-28T09:44:25.800Z,20.30
2018-11-28T09:47:14.557Z,16.20
2018-11-28T09:50:03.334Z,20.40
2018-11-28T09:52:52.124Z,16.90
2018-11-28T09:55:40.909Z,17.90
2018-11-28T09:58:29.666Z,18.03
2018-11-28T10:01:18.749Z,16.63
2018-11-28T10:04:07.582Z,16.63
2018-11-28T10:06:56.367Z,15.80
2018-11-28T10:09:45.414Z,17.67
2018-11-28T10:12:34.476Z,16.97
2018-11-28T10:15:46.246Z,20.10
2018-11-28T10:18:35.884Z,16.67
2018-11-28T10:21:23.793Z,19.60
2018-11-28T10:24:12.582Z,18.77
2018-11-28T10:27:01.339Z,17.97
2018-11-28T10:29:50.113Z,18.83
2018-11-28T10:32:39.234Z,18.42
2018-11-28T10:35:28.060Z,17.43
2018-11-28T10:38:17.096Z,18.00
2018-11-28T10:41:06.286Z,17.53
2018-11-28T10:43:55.089Z,16.77
2018-11-28T10:46:43.901Z,17.20
2018-11-28T10:49:32.957Z,19.63
2018-11-28T10:52:22.085Z,17.57
2018-11-28T10:55:30.228Z,17.33
2018-11-28T10:58:18.996Z,16.43
2018-11-28T11:01:26.839Z,18.83
2018-11-28T11:04:16.236Z,16.70
2018-11-28T11:07:23.970Z,17.47
2018-11-28T11:10:31.723Z,16.77
2018-11-28T11:13:39.474Z,16.13
2018-11-28T11:16:47.218Z,17.20
2018-11-28T11:19:36.009Z,20.70
2018-11-28T11:22:24.772Z,16.90
2018-11-28T11:25:13.888Z,17.03
2018-11-28T11:28:02.640Z,19.50
2018-11-28T11:30:51.435Z,18.80
2018-11-28T11:33:40.208Z,21.17
2018-11-28T11:36:29.016Z,17.60
2018-11-28T11:39:17.765Z,20.03
2018-11-28T11:42:06.693Z,17.20
2018-11-28T11:44:55.482Z,17.80
2018-11-28T11:47:44.289Z,18.85
2018-11-28T11:50:33.068Z,21.13
2018-11-28T11:53:21.876Z,18.33
2018-11-28T11:56:10.643Z,17.87
2018-11-28T11:58:59.421Z,18.30
2018-11-28T12:01:54.556Z,17.30
2018-11-28T12:04:37.246Z,16.90
2018-11-28T12:07:25.996Z,16.67
2018-11-28T12:10:14.970Z,18.20
2018-11-28T12:13:03.733Z,18.63
2018-11-28T12:15:52.520Z,18.43
2018-11-28T12:18:41.296Z,18.25
2018-11-28T12:21:30.110Z,19.10
2018-11-28T12:24:18.867Z,18.27
2018-11-28T12:27:07.647Z,17.47
2018-11-28T12:29:56.798Z,20.40
2018-11-28T12:32:45.554Z,17.67
2018-11-28T12:35:34.322Z,20.83
2018-11-28T12:38:23.085Z,15.87
2018-11-28T12:41:11.892Z,19.07
2018-11-28T12:44:00.651Z,18.83
2018-11-28T12:46:49.437Z,18.73
2018-11-28T12:49:38.205Z,18.30
2018-11-28T12:52:26.986Z,19.07
2018-11-28T12:55:15.899Z,18.77
2018-11-28T12:58:04.876Z,18.70
2018-11-28T13:00:53.640Z,18.53
2018-11-28T13:03:42.436Z,17.23
2018-11-28T13:06:31.552Z,17.50
2018-11-28T13:09:20.342Z,15.90
2018-11-28T13:12:09.091Z,16.97
2018-11-28T13:14:57.893Z,16.13
2018-11-28T13:17:46.681Z,18.67
2018-11-28T13:20:35.452Z,16.07
2018-11-28T13:23:24.209Z,16.57
2018-11-28T13:26:12.979Z,20.30
2018-11-28T13:29:01.754Z,16.77
2018-11-28T13:31:50.544Z,17.50
2018-11-28T13:34:39.332Z,17.17
2018-11-28T13:37:28.083Z,16.00
2018-11-28T13:40:17.878Z,18.27
2018-11-28T13:43:06.903Z,16.90
2018-11-28T13:45:55.971Z,20.30
2018-11-28T13:48:44.750Z,19.50
2018-11-28T13:51:33.775Z,21.20
2018-11-28T13:54:22.553Z,20.47
2018-11-28T13:57:11.874Z,16.73
2018-11-28T14:00:00.338Z,15.77
2018-11-28T14:02:49.139Z,18.30
2018-11-28T14:05:37.889Z,17.27
2018-11-28T14:08:26.684Z,16.57
2018-11-28T14:11:15.775Z,18.47
2018-11-28T14:14:04.561Z,16.23
2018-11-28T14:16:53.360Z,19.40
2018-11-28T14:19:42.123Z,17.30
2018-11-28T14:22:30.911Z,17.30
2018-11-28T14:25:19.931Z,19.60
2018-11-28T14:28:08.899Z,13.60
2018-11-28T14:30:57.671Z,14.30
2018-11-28T14:33:50.755Z,15.67
2018-11-28T14:36:35.228Z,15.97
2018-11-28T14:39:24.080Z,14.90
2018-11-28T14:42:13.121Z,15.37
2018-11-28T14:45:01.990Z,15.57
2018-11-28T14:47:51.202Z,16.20
2018-11-28T14:50:40.000Z,15.30
2018-11-28T14:53:28.781Z,14.83
2018-11-28T14:56:17.543Z,14.73
2018-11-28T14:59:06.692Z,14.70
2018-11-28T15:01:55.766Z,14.03
2018-11-28T15:04:44.848Z,13.37
2018-11-28T15:07:33.630Z,14.47
2018-11-28T15:10:44.063Z,14.17
2018-11-28T15:13:32.862Z,15.33
2018-11-28T15:16:21.668Z,15.10
2018-11-28T15:19:10.419Z,16.17
2018-11-28T15:21:59.217Z,14.57
2018-11-28T15:24:48.343Z,15.72
2018-11-28T15:27:37.426Z,17.37
2018-11-28T15:30:26.212Z,15.77
2018-11-28T15:33:14.982Z,15.60
2018-11-28T15:36:03.795Z,15.93
2018-11-28T15:38:52.523Z,16.20
2018-11-28T15:41:34.570Z,14.80
2018-11-28T15:44:23.336Z,17.50
2018-11-28T15:47:12.150Z,15.67
2018-11-28T15:50:00.921Z,14.10
2018-11-28T15:52:49.728Z,13.80
2018-11-28T15:55:38.491Z,12.03
2018-11-28T15:58:27.272Z,12.10
2018-11-28T16:01:16.051Z,12.90
2018-11-28T16:04:05.166Z,15.63
2018-11-28T16:06:53.932Z,14.23
2018-11-28T16:10:01.682Z,13.30
2018-11-28T16:12:50.700Z,12.80
2018-11-28T16:15:59.352Z,13.27
2018-11-28T16:18:48.105Z,14.20
2018-11-28T16:21:36.878Z,17.17
2018-11-28T16:24:25.657Z,20.50
2018-11-28T16:27:14.451Z,14.13
2018-11-28T16:30:03.237Z,14.73
2018-11-28T16:32:52.032Z,14.00
2018-11-28T16:35:40.843Z,15.97
2018-11-28T16:38:29.637Z,13.83
2018-11-28T16:41:18.407Z,15.03
2018-11-28T16:44:07.477Z,16.60
2018-11-28T16:46:56.261Z,16.67
2018-11-28T16:49:45.026Z,16.15
2018-11-28T16:52:33.819Z,16.03
2018-11-28T16:55:22.589Z,15.13
2018-11-28T16:58:11.695Z,15.57
2018-11-28T17:01:00.845Z,16.20
2018-11-28T17:03:49.962Z,16.90
2018-11-28T17:06:38.897Z,14.33
2018-11-28T17:09:27.858Z,14.80
2018-11-28T17:12:16.627Z,16.10
2018-11-28T17:15:06.373Z,20.17
2018-11-28T17:17:55.394Z,21.90
2018-11-28T17:20:44.388Z,20.80
2018-11-28T17:23:34.130Z,16.57
2018-11-28T17:26:22.651Z,17.40
2018-11-28T17:29:11.949Z,18.50
2018-11-28T17:32:00.882Z,15.60
2018-11-28T17:34:49.841Z,17.70
2018-11-28T17:37:38.735Z,17.33
2018-11-28T17:40:28.453Z,16.40
2018-11-28T17:43:17.342Z,16.95
2018-11-28T17:46:06.154Z,17.67
2018-11-28T17:48:55.062Z,17.13
2018-11-28T17:51:44.365Z,18.37
2018-11-28T17:54:33.379Z,20.60
2018-11-28T17:57:22.279Z,19.70
2018-11-28T18:00:30.595Z,18.20
2018-11-28T18:03:19.966Z,17.27
2018-11-28T18:06:09.248Z,18.67
2018-11-28T18:08:58.046Z,16.80
2018-11-28T18:11:46.812Z,17.87
2018-11-28T18:14:35.629Z,20.57
2018-11-28T18:17:24.399Z,18.87
2018-11-28T18:20:13.199Z,19.90
2018-11-28T18:23:02.015Z,15.77
2018-11-28T18:25:50.850Z,17.93
2018-11-28T18:28:39.981Z,18.20
2018-11-28T18:31:29.165Z,17.10
2018-11-28T18:34:10.835Z,18.80
2018-11-28T18:36:59.963Z,19.17
2018-11-28T18:39:48.774Z,17.48
2018-11-28T18:42:37.659Z,16.50
2018-11-28T18:45:27.788Z,18.57
2018-11-28T18:48:16.549Z,18.87
2018-11-28T18:51:05.340Z,19.90
2018-11-28T18:53:54.159Z,19.30
2018-11-28T18:56:43.433Z,18.60
2018-11-28T18:59:32.198Z,18.00
2018-11-28T19:02:21.074Z,20.77
2018-11-28T19:05:09.862Z,18.33
2018-11-28T19:07:58.745Z,19.00
2018-11-28T19:10:47.555Z,16.50
2018-11-28T19:13:36.361Z,16.90
2018-11-28T19:16:25.149Z,19.50
2018-11-28T19:19:13.949Z,19.77
2018-11-28T19:22:02.899Z,18.67
2018-11-28T19:24:51.790Z,21.83
2018-11-28T19:27:40.945Z,18.07
2018-11-28T19:30:49.770Z,18.00
2018-11-28T19:33:39.989Z,18.80
2018-11-28T19:36:29.987Z,15.50
2018-11-28T19:39:19.856Z,17.80
2018-11-28T19:45:19.135Z,19.67
2018-11-28T19:48:09.508Z,19.27
2018-11-28T19:50:59.903Z,16.73
2018-11-28T19:53:49.824Z,20.47
2018-11-28T19:56:40.054Z,20.87
2018-11-28T19:59:30.552Z,17.40
2018-11-28T20:02:20.948Z,18.70
2018-11-28T20:05:11.542Z,20.70
2018-11-28T20:08:01.856Z,20.77
2018-11-28T20:10:52.273Z,22.40
2018-11-28T20:13:42.681Z,22.32
2018-11-28T20:19:43.407Z,21.57
2018-11-28T20:22:33.945Z,22.30
2018-11-28T20:25:25.401Z,23.20
2018-11-28T20:28:15.939Z,19.40
2018-11-28T20:31:06.525Z,21.77
2018-11-28T20:33:57.021Z,22.62
2018-11-28T20:36:47.364Z,24.47
2018-11-28T20:39:37.850Z,23.10
2018-11-28T20:42:28.195Z,23.17
2018-11-28T20:45:18.756Z,22.40
2018-11-28T20:48:27.752Z,21.60
2018-11-28T20:51:18.178Z,22.20
2018-11-28T20:54:08.631Z,20.07
2018-11-28T20:56:59.083Z,22.67
2018-11-28T21:00:12.208Z,21.17
2018-11-28T21:03:02.773Z,23.00
2018-11-28T21:05:53.178Z,22.63
2018-11-28T21:08:43.689Z,22.07
2018-11-28T21:11:34.024Z,20.70
2018-11-28T21:14:24.395Z,23.50
2018-11-28T21:17:14.975Z,22.80
2018-11-28T21:20:05.441Z,24.37
2018-11-28T21:23:17.724Z,24.20
2018-11-28T21:26:07.284Z,23.30
2018-11-28T21:28:56.822Z,23.87
2018-11-28T21:31:46.260Z,22.17
2018-11-28T21:34:35.379Z,26.00
2018-11-28T21:37:24.479Z,18.17
2018-11-28T21:40:13.742Z,21.90
2018-11-28T21:43:03.080Z,22.20
2018-11-28T21:45:52.140Z,25.57
2018-11-28T21:48:40.986Z,22.50
2018-11-28T21:51:29.757Z,24.20
2018-11-28T21:54:18.560Z,22.97
2018-11-28T21:57:07.352Z,25.37
2018-11-28T21:59:36.756Z,25.77
2018-11-28T22:02:25.528Z,23.47
2018-11-28T22:05:14.951Z,23.43
2018-11-28T22:08:03.823Z,22.60
2018-11-28T22:10:52.620Z,24.97
2018-11-28T22:13:41.402Z,23.05
2018-11-28T22:16:30.199Z,23.07
2018-11-28T22:19:18.986Z,23.93
2018-11-28T22:22:07.764Z,24.30
2018-11-28T22:24:56.881Z,24.10
2018-11-28T22:27:45.656Z,21.20
2018-11-28T22:30:34.459Z,19.90
2018-11-28T22:33:23.248Z,22.70
2018-11-28T22:36:12.036Z,20.70
2018-11-28T22:39:00.838Z,21.90
2018-11-28T22:41:49.881Z,22.87
2018-11-28T22:44:38.669Z,23.40
2018-11-28T22:47:27.475Z,21.30
2018-11-28T22:50:16.236Z,22.00
2018-11-28T22:52:58.059Z,22.37
2018-11-28T22:55:47.528Z,22.80
2018-11-28T22:58:36.314Z,27.37
2018-11-28T23:01:57.040Z,23.87
2018-11-28T23:04:45.831Z,28.00
2018-11-28T23:07:34.647Z,24.53
2018-11-28T23:10:23.432Z,23.10
2018-11-28T23:13:16.104Z,26.00
2018-11-28T23:16:05.063Z,25.40
2018-11-28T23:18:54.034Z,26.43
2018-11-28T23:21:43.233Z,25.10
2018-11-28T23:24:32.220Z,26.40
2018-11-28T23:27:21.396Z,23.27
2018-11-28T23:30:32.947Z,26.13
2018-11-28T23:33:21.895Z,23.77
2018-11-28T23:36:11.307Z,24.60
2018-11-28T23:39:00.304Z,23.57
2018-11-28T23:41:49.295Z,23.77
2018-11-28T23:44:38.221Z,23.30
2018-11-28T23:47:28.471Z,24.17
2018-11-28T23:50:36.741Z,25.10
2018-11-28T23:53:26.048Z,27.90
2018-11-28T23:56:14.925Z,28.67
2018-11-28T23:59:04.497Z,25.80
